»·PEaware :: N13005 KLAS-KONT

N13005 :: KLAS-KONT

FLIGHT INFORMATION

Flight Status: Arrived
Operator: Privately registered:
United States
More flights under this callsign
Pilot: Kaloso N. (23070)
Aircraft: BOEING 737-800
(B738)
More flights by this aircraft type
Origin: KLAS McCarran Intl
United States
Destination: KONT Ontario Intl
United States
More flights between these airports :: More routes between these airports
Route: +BOACH8 RIKII HEYNG JCKIE2
File this flight plan on PilotEdge
Remarks: NONE
Altitude:
(Current/Filed)
22,000ft
Speed:
(Current/Filed)
290kts
Departed: 29-Jan-20 06:09 PM
Arrived: 29-Jan-20 07:03 PM
Distance/Time
Traveled:
184nm/0:53
Distance/Time
To Go:
Arrived

Flight Plot

Page will automatically refresh every two minutes.


Map Options




Map Legend


Flown Route
Filed Route
Departure Airport
Arrival Airport
Navaid (VOR, NDB)
Fix

Horizontal Profiles

Position Reports

Time Latitude Longitude Heading Altitude Ground
Speed
29-Jan-20 17:37 36.088948 -115.165730 179 2140ft 0kts
29-Jan-20 17:38 36.088948 -115.165730 179 2140ft 0kts
29-Jan-20 17:39 36.088948 -115.165730 179 2140ft 0kts
29-Jan-20 17:40 36.088948 -115.165730 179 2140ft 0kts
29-Jan-20 17:41 36.088948 -115.165730 179 2140ft 0kts
29-Jan-20 17:42 36.088948 -115.165730 179 2140ft 0kts
29-Jan-20 17:43 36.088947 -115.165730 179 2140ft 0kts
29-Jan-20 17:44 36.088947 -115.165730 179 2140ft 0kts
29-Jan-20 17:45 36.088947 -115.165730 179 2140ft 0kts
29-Jan-20 17:46 36.088948 -115.165730 179 2140ft 0kts
29-Jan-20 17:47 36.088948 -115.165730 179 2140ft 0kts
29-Jan-20 17:48 36.088948 -115.165730 179 2140ft 0kts
29-Jan-20 17:49 36.088948 -115.165730 179 2140ft 0kts
29-Jan-20 17:50 36.088948 -115.165730 179 2140ft 0kts
29-Jan-20 17:51 36.088948 -115.165730 179 2140ft 0kts
29-Jan-20 17:52 36.088948 -115.165730 179 2140ft 0kts
29-Jan-20 17:53 36.088948 -115.165730 179 2140ft 0kts
29-Jan-20 17:54 36.088948 -115.165730 179 2140ft 0kts
29-Jan-20 17:55 36.088948 -115.165730 179 2140ft 0kts
29-Jan-20 17:56 36.088948 -115.165730 179 2140ft 0kts
29-Jan-20 17:57 36.088948 -115.165730 179 2140ft 0kts
29-Jan-20 17:58 36.088948 -115.165730 179 2140ft 0kts
29-Jan-20 17:59 36.088948 -115.165730 179 2140ft 0kts
29-Jan-20 18:01 36.088948 -115.165730 179 2140ft 0kts
29-Jan-20 18:02 36.087575 -115.166482 204 2147ft 11kts
29-Jan-20 18:03 36.085030 -115.167212 205 2155ft 18kts
29-Jan-20 18:04 36.078920 -115.170734 201 2179ft 24kts
29-Jan-20 18:05 36.078033 -115.170270 90 2180ft 0kts
29-Jan-20 18:06 36.078033 -115.170270 90 2180ft 0kts
29-Jan-20 18:07 36.078033 -115.170270 90 2180ft 0kts
29-Jan-20 18:08 36.078709 -115.168507 24 2172ft 34kts
29-Jan-20 18:09 36.099969 -115.156185 26 2294ft 180kts
29-Jan-20 18:10 36.138861 -115.132057 25 3869ft 217kts
29-Jan-20 18:11 36.187417 -115.132154 305 5395ft 255kts
29-Jan-20 18:12 36.168926 -115.193936 203 6912ft 282kts
29-Jan-20 18:13 36.111001 -115.226360 204 8325ft 282kts
29-Jan-20 18:14 36.036552 -115.268316 204 10289ft 290kts
29-Jan-20 18:15 35.955966 -115.304340 186 12318ft 299kts
29-Jan-20 18:16 35.869203 -115.313723 185 14288ft 308kts
29-Jan-20 18:17 35.777543 -115.306039 174 16321ft 318kts
29-Jan-20 18:17 35.699679 -115.297114 174 17991ft 326kts
29-Jan-20 18:19 35.565590 -115.299160 182 20779ft 333kts
29-Jan-20 18:20 35.469877 -115.335485 219 21921ft 362kts
29-Jan-20 18:20 35.392899 -115.412131 218 21906ft 400kts
29-Jan-20 18:21 35.306036 -115.496910 218 21907ft 388kts
29-Jan-20 18:23 35.193123 -115.606816 218 21903ft 399kts
29-Jan-20 18:23 35.126040 -115.671923 218 21903ft 399kts
29-Jan-20 18:24 35.046428 -115.749005 218 21903ft 399kts
29-Jan-20 18:25 34.966186 -115.826498 218 21903ft 399kts
29-Jan-20 18:26 34.888719 -115.901104 218 21904ft 378kts
29-Jan-20 18:27 34.814144 -115.972788 219 21903ft 378kts
29-Jan-20 18:28 34.767180 -116.078484 256 21838ft 382kts
29-Jan-20 18:29 34.740857 -116.208358 261 20298ft 369kts
29-Jan-20 18:30 34.721311 -116.357339 260 18936ft 362kts
29-Jan-20 18:31 34.701830 -116.501215 260 17790ft 355kts
29-Jan-20 18:32 34.679405 -116.632827 242 16999ft 349kts
29-Jan-20 18:33 34.614226 -116.743582 233 16981ft 351kts
29-Jan-20 18:34 34.564589 -116.846812 241 16981ft 351kts
29-Jan-20 18:35 34.508010 -116.943745 228 15526ft 351kts
29-Jan-20 18:36 34.444340 -117.032433 229 12685ft 338kts
29-Jan-20 18:37 34.391215 -117.106879 229 10863ft 310kts
29-Jan-20 18:38 34.328652 -117.161060 197 9986ft 277kts
29-Jan-20 18:39 34.260219 -117.187784 198 9981ft 278kts
29-Jan-20 18:40 34.192599 -117.227375 230 9895ft 279kts
29-Jan-20 18:41 34.147079 -117.284182 221 9386ft 276kts
29-Jan-20 18:42 34.087622 -117.348054 221 8549ft 271kts
29-Jan-20 18:43 34.041255 -117.398024 221 7584ft 267kts
29-Jan-20 18:44 33.990465 -117.452675 221 6164ft 254kts
29-Jan-20 18:45 33.943185 -117.504147 230 4728ft 234kts
29-Jan-20 18:46 33.910285 -117.549157 227 4258ft 214kts
29-Jan-20 18:47 33.882128 -117.589387 241 4269ft 213kts
29-Jan-20 18:48 33.883164 -117.647523 281 4282ft 213kts
29-Jan-20 18:49 33.892775 -117.702756 287 4277ft 213kts
29-Jan-20 18:50 33.915089 -117.750640 301 4281ft 197kts
29-Jan-20 18:51 33.937645 -117.794716 301 4281ft 197kts
29-Jan-20 18:52 33.961270 -117.840868 301 4281ft 197kts
29-Jan-20 18:53 33.990449 -117.895602 318 4266ft 197kts
29-Jan-20 18:54 34.042387 -117.908433 17 4109ft 199kts
29-Jan-20 18:55 34.067834 -117.869660 63 3991ft 197kts
29-Jan-20 18:56 34.071630 -117.826990 110 3891ft 181kts
29-Jan-20 18:57 34.059132 -117.790280 112 3381ft 165kts
29-Jan-20 18:58 34.055443 -117.751214 85 2920ft 172kts
29-Jan-20 18:59 34.057618 -117.687693 90 2131ft 170kts
29-Jan-20 19:00 34.056756 -117.644050 88 1380ft 154kts
29-Jan-20 19:01 34.056867 -117.606056 89 936ft 45kts
29-Jan-20 19:02 34.057692 -117.602431 19 935ft 0kts
29-Jan-20 19:03 34.057739 -117.602407 23 935ft 0kts
29-Jan-20 19:04 34.058013 -117.600614 89 935ft 14kts
29-Jan-20 19:05 34.059013 -117.598483 90 937ft 23kts
29-Jan-20 19:06 34.059323 -117.590520 4 939ft 2kts
29-Jan-20 19:07 34.059903 -117.590080 11 942ft 0kts
29-Jan-20 19:08 34.059942 -117.590076 6 942ft 0kts
29-Jan-20 19:09 33.975581 -117.868819 301 4281ft 197kts

Navigation Log

Ident Type
Flight plan parsing failed, navigation log unavailable